createdAt,value
2018-04-22T00:00:45.426Z,1011.93
2018-04-22T00:01:45.396Z,1011.89
2018-04-22T00:02:45.365Z,1011.86
2018-04-22T00:03:45.339Z,1011.83
2018-04-22T00:04:45.319Z,1011.85
2018-04-22T00:05:45.288Z,1011.82
2018-04-22T00:06:45.270Z,1011.83
2018-04-22T00:07:45.252Z,1011.86
2018-04-22T00:08:45.217Z,1011.82
2018-04-22T00:09:45.190Z,1011.79
2018-04-22T00:10:45.172Z,1011.78
2018-04-22T00:11:45.146Z,1011.72
2018-04-22T00:12:45.122Z,1011.70
2018-04-22T00:13:45.100Z,1011.69
2018-04-22T00:14:45.074Z,1011.66
2018-04-22T00:15:45.079Z,1011.65
2018-04-22T00:16:45.026Z,1011.64
2018-04-22T00:17:44.997Z,1011.66
2018-04-22T00:18:44.971Z,1011.70
2018-04-22T00:19:44.982Z,1011.72
2018-04-22T00:20:44.921Z,1011.70
2018-04-22T00:21:44.901Z,1011.68
2018-04-22T00:22:44.870Z,1011.64
2018-04-22T00:23:44.935Z,1011.59
2018-04-22T00:24:44.849Z,1011.58
2018-04-22T00:25:44.862Z,1011.51
2018-04-22T00:26:44.838Z,1011.50
2018-04-22T00:27:44.928Z,1011.54
2018-04-22T00:28:44.777Z,1011.55
2018-04-22T00:29:46.299Z,1011.54
2018-04-22T00:30:44.774Z,1011.55
2018-04-22T00:31:44.744Z,1011.53
2018-04-22T00:32:44.679Z,1011.51
2018-04-22T00:33:44.655Z,1011.50
2018-04-22T00:34:44.621Z,1011.48
2018-04-22T00:35:44.626Z,1011.47
2018-04-22T00:36:44.538Z,1011.46
2018-04-22T00:37:44.564Z,1011.40
2018-04-22T00:38:44.539Z,1011.37
2018-04-22T00:39:44.511Z,1011.38
2018-04-22T00:40:44.476Z,1011.35
2018-04-22T00:41:44.455Z,1011.36
2018-04-22T00:42:44.437Z,1011.32
2018-04-22T00:43:44.418Z,1011.28
2018-04-22T00:44:44.396Z,1011.25
2018-04-22T00:45:44.358Z,1011.22
2018-04-22T00:46:44.340Z,1011.19
2018-04-22T00:47:44.304Z,1011.21
2018-04-22T00:48:44.292Z,1011.15
2018-04-22T00:49:44.237Z,1011.20
2018-04-22T00:50:44.236Z,1011.18
2018-04-22T00:51:44.219Z,1011.15
2018-04-22T00:52:44.238Z,1011.18
2018-04-22T00:53:44.192Z,1011.13
2018-04-22T00:54:44.171Z,1011.11
2018-04-22T00:55:44.137Z,1011.13
2018-04-22T00:56:44.099Z,1011.10
2018-04-22T00:57:44.071Z,1011.11
2018-04-22T00:58:44.032Z,1011.08
2018-04-22T00:59:44.020Z,1011.07
2018-04-22T01:00:43.992Z,1011.05
2018-04-22T01:01:43.976Z,1011.04
2018-04-22T01:02:43.950Z,1011.04
2018-04-22T01:03:43.929Z,1011.03
2018-04-22T01:04:43.839Z,1010.99
2018-04-22T01:05:43.865Z,1010.94
2018-04-22T01:06:43.851Z,1010.99
2018-04-22T01:07:43.872Z,1010.98
2018-04-22T01:08:43.789Z,1010.95
2018-04-22T01:09:43.765Z,1010.90
2018-04-22T01:10:43.740Z,1010.94
2018-04-22T01:11:43.724Z,1010.90
2018-04-22T01:12:43.714Z,1010.90
2018-04-22T01:13:43.677Z,1010.93
2018-04-22T01:14:43.640Z,1010.90
2018-04-22T01:15:43.612Z,1010.90
2018-04-22T01:16:43.581Z,1010.87
2018-04-22T01:17:43.562Z,1010.90
2018-04-22T01:18:43.538Z,1010.89
2018-04-22T01:19:43.517Z,1010.88
2018-04-22T01:20:43.497Z,1010.88
2018-04-22T01:21:43.508Z,1010.90
2018-04-22T01:22:43.445Z,1010.88
2018-04-22T01:23:43.426Z,1010.90
2018-04-22T01:24:43.457Z,1010.90
2018-04-22T01:25:43.375Z,1010.91
2018-04-22T01:26:43.352Z,1010.91
2018-04-22T01:27:43.336Z,1010.91
2018-04-22T01:28:43.294Z,1010.91
2018-04-22T01:29:43.282Z,1010.90
2018-04-22T01:30:43.255Z,1010.93
2018-04-22T01:31:43.218Z,1010.89
2018-04-22T01:32:43.192Z,1010.86
2018-04-22T01:33:43.166Z,1010.82
2018-04-22T01:34:43.168Z,1010.81
2018-04-22T01:35:43.129Z,1010.82
2018-04-22T01:36:43.045Z,1010.81
2018-04-22T01:37:43.101Z,1010.75
2018-04-22T01:38:43.057Z,1010.73
2018-04-22T01:39:43.030Z,1010.72
2018-04-22T01:40:43.013Z,1010.73
2018-04-22T01:41:42.984Z,1010.73
2018-04-22T01:42:42.959Z,1010.71
2018-04-22T01:43:42.934Z,1010.67
2018-04-22T01:44:42.916Z,1010.69
2018-04-22T01:45:42.884Z,1010.66
2018-04-22T01:46:42.851Z,1010.65
2018-04-22T01:47:42.848Z,1010.66
2018-04-22T01:48:42.793Z,1010.65
2018-04-22T01:49:42.797Z,1010.65
2018-04-22T01:50:42.746Z,1010.65
2018-04-22T01:51:42.712Z,1010.68
2018-04-22T01:52:42.678Z,1010.69
2018-04-22T01:53:42.676Z,1010.70
2018-04-22T01:54:42.681Z,1010.74
2018-04-22T01:55:42.607Z,1010.71
2018-04-22T01:56:42.603Z,1010.71
2018-04-22T01:57:42.570Z,1010.66
2018-04-22T01:58:42.505Z,1010.70
2018-04-22T01:59:42.478Z,1010.67
2018-04-22T02:00:42.451Z,1010.72
2018-04-22T02:01:42.437Z,1010.72
2018-04-22T02:02:42.395Z,1010.74
2018-04-22T02:03:42.416Z,1010.73
2018-04-22T02:04:42.344Z,1010.70
2018-04-22T02:05:42.320Z,1010.67
2018-04-22T02:06:42.290Z,1010.69
2018-04-22T02:07:42.266Z,1010.69
2018-04-22T02:08:42.241Z,1010.69
2018-04-22T02:09:42.213Z,1010.69
2018-04-22T02:10:42.196Z,1010.70
2018-04-22T02:11:42.170Z,1010.74
2018-04-22T02:12:42.146Z,1010.71
2018-04-22T02:13:42.126Z,1010.70
2018-04-22T02:14:42.096Z,1010.65
2018-04-22T02:15:42.081Z,1010.63
2018-04-22T02:16:42.042Z,1010.62
2018-04-22T02:17:42.044Z,1010.62
2018-04-22T02:18:41.992Z,1010.60
2018-04-22T02:19:41.969Z,1010.57
2018-04-22T02:20:41.956Z,1010.56
2018-04-22T02:21:41.932Z,1010.55
2018-04-22T02:22:41.893Z,1010.57
2018-04-22T02:23:41.873Z,1010.52
2018-04-22T02:24:41.839Z,1010.56
2018-04-22T02:25:41.817Z,1010.49
2018-04-22T02:26:41.817Z,1010.48
2018-04-22T02:27:41.775Z,1010.48
2018-04-22T02:28:43.287Z,1010.44
2018-04-22T02:29:41.725Z,1010.44
2018-04-22T02:30:41.708Z,1010.44
2018-04-22T02:31:41.668Z,1010.41
2018-04-22T02:32:41.647Z,1010.41
2018-04-22T02:33:41.617Z,1010.38
2018-04-22T02:34:41.591Z,1010.38
2018-04-22T02:35:41.565Z,1010.35
2018-04-22T02:36:41.535Z,1010.38
2018-04-22T02:37:41.514Z,1010.33
2018-04-22T02:38:41.487Z,1010.32
2018-04-22T02:39:41.465Z,1010.34
2018-04-22T02:40:41.443Z,1010.34
2018-04-22T02:41:41.414Z,1010.30
2018-04-22T02:42:41.394Z,1010.29
2018-04-22T02:43:41.368Z,1010.31
2018-04-22T02:44:41.339Z,1010.28
2018-04-22T02:45:41.314Z,1010.33
2018-04-22T02:46:41.287Z,1010.28
2018-04-22T02:47:41.274Z,1010.28
2018-04-22T02:48:41.240Z,1010.26
2018-04-22T02:49:41.221Z,1010.23
2018-04-22T02:50:41.192Z,1010.19
2018-04-22T02:51:41.158Z,1010.18
2018-04-22T02:52:41.139Z,1010.16
2018-04-22T02:53:41.116Z,1010.14
2018-04-22T02:54:41.125Z,1010.13
2018-04-22T02:55:41.069Z,1010.13
2018-04-22T02:56:41.044Z,1010.10
2018-04-22T02:57:41.034Z,1010.10
2018-04-22T02:58:40.981Z,1010.09
2018-04-22T02:59:40.963Z,1010.09
2018-04-22T03:00:40.950Z,1010.10
2018-04-22T03:01:40.920Z,1010.10
2018-04-22T03:02:40.881Z,1010.08
2018-04-22T03:03:40.855Z,1010.00
2018-04-22T03:04:40.834Z,1010.02
2018-04-22T03:05:40.801Z,1010.01
2018-04-22T03:06:40.797Z,1010.03
2018-04-22T03:07:40.757Z,1009.98
2018-04-22T03:08:40.734Z,1009.97
2018-04-22T03:09:40.710Z,1010.00
2018-04-22T03:10:40.688Z,1009.99
2018-04-22T03:11:40.659Z,1009.98
2018-04-22T03:12:40.640Z,1009.93
2018-04-22T03:13:40.647Z,1009.98
2018-04-22T03:14:40.574Z,1009.96
2018-04-22T03:15:40.554Z,1009.97
2018-04-22T03:16:40.566Z,1009.96
2018-04-22T03:17:40.534Z,1009.90
2018-04-22T03:18:40.471Z,1009.93
2018-04-22T03:19:40.467Z,1009.89
2018-04-22T03:20:40.424Z,1009.86
2018-04-22T03:21:40.421Z,1009.85
2018-04-22T03:22:40.375Z,1009.88
2018-04-22T03:23:40.351Z,1009.82
2018-04-22T03:24:40.336Z,1009.82
2018-04-22T03:25:40.303Z,1009.78
2018-04-22T03:26:40.284Z,1009.81
2018-04-22T03:27:40.259Z,1009.76
2018-04-22T03:28:40.240Z,1009.71
2018-04-22T03:29:40.205Z,1009.72
2018-04-22T03:30:40.173Z,1009.67
2018-04-22T03:31:40.152Z,1009.64
2018-04-22T03:32:40.118Z,1009.68
2018-04-22T03:33:40.104Z,1009.67
2018-04-22T03:34:40.070Z,1009.65
2018-04-22T03:35:40.039Z,1009.65
2018-04-22T03:36:40.023Z,1009.66
2018-04-22T03:37:39.988Z,1009.62
2018-04-22T03:38:39.995Z,1009.63
2018-04-22T03:39:39.943Z,1009.63
2018-04-22T03:40:39.941Z,1009.63
2018-04-22T03:41:39.894Z,1009.62
2018-04-22T03:42:39.891Z,1009.63
2018-04-22T03:43:39.850Z,1009.58
2018-04-22T03:44:39.821Z,1009.56
2018-04-22T03:45:39.795Z,1009.56
2018-04-22T03:46:39.781Z,1009.56
2018-04-22T03:47:39.740Z,1009.52
2018-04-22T03:48:39.713Z,1009.51
2018-04-22T03:49:39.708Z,1009.50
2018-04-22T03:50:39.662Z,1009.47
2018-04-22T03:51:39.635Z,1009.46
2018-04-22T03:52:39.610Z,1009.44
2018-04-22T03:53:39.585Z,1009.47
2018-04-22T03:54:39.564Z,1009.46
2018-04-22T03:55:39.623Z,1009.41
2018-04-22T03:56:39.508Z,1009.36
2018-04-22T03:57:39.486Z,1009.37
2018-04-22T03:58:39.450Z,1009.33
2018-04-22T03:59:39.427Z,1009.31
2018-04-22T04:00:39.400Z,1009.31
2018-04-22T04:01:39.375Z,1009.30
2018-04-22T04:02:39.361Z,1009.24
2018-04-22T04:03:39.326Z,1009.24
2018-04-22T04:04:39.302Z,1009.18
2018-04-22T04:05:39.293Z,1009.19
2018-04-22T04:06:39.261Z,1009.19
2018-04-22T04:07:39.225Z,1009.15
2018-04-22T04:08:39.200Z,1009.17
2018-04-22T04:09:39.182Z,1009.16
2018-04-22T04:10:39.149Z,1009.18
2018-04-22T04:11:39.121Z,1009.18
2018-04-22T04:12:39.095Z,1009.14
2018-04-22T04:13:39.067Z,1009.12
2018-04-22T04:14:39.072Z,1009.14
2018-04-22T04:15:39.025Z,1009.09
2018-04-22T04:16:38.991Z,1009.08
2018-04-22T04:17:39.003Z,1009.05
2018-04-22T04:18:38.941Z,1008.99
2018-04-22T04:19:38.919Z,1009.04
2018-04-22T04:20:38.892Z,1008.99
2018-04-22T04:21:38.873Z,1008.96
2018-04-22T04:22:38.845Z,1009.02
2018-04-22T04:23:38.827Z,1009.03
2018-04-22T04:24:38.789Z,1009.01
2018-04-22T04:25:38.764Z,1009.00
2018-04-22T04:26:38.737Z,1008.99
2018-04-22T04:27:38.708Z,1008.97
2018-04-22T04:28:38.686Z,1008.94
2018-04-22T04:29:38.669Z,1008.90
2018-04-22T04:30:38.674Z,1008.91
2018-04-22T04:31:38.618Z,1008.91
2018-04-22T04:32:38.578Z,1008.94
2018-04-22T04:33:38.566Z,1008.90
2018-04-22T04:34:38.542Z,1008.86
2018-04-22T04:35:38.509Z,1008.89
2018-04-22T04:36:38.487Z,1008.88
2018-04-22T04:37:38.460Z,1008.83
2018-04-22T04:38:38.431Z,1008.80
2018-04-22T04:39:38.406Z,1008.82
2018-04-22T04:40:38.388Z,1008.78
2018-04-22T04:41:38.351Z,1008.77
2018-04-22T04:42:38.325Z,1008.75
2018-04-22T04:43:38.300Z,1008.77
2018-04-22T04:44:38.274Z,1008.76
2018-04-22T04:45:38.245Z,1008.75
2018-04-22T04:46:38.224Z,1008.80
2018-04-22T04:47:38.196Z,1008.77
2018-04-22T04:48:38.171Z,1008.79
2018-04-22T04:49:38.138Z,1008.77
2018-04-22T04:50:38.120Z,1008.77
2018-04-22T04:51:38.098Z,1008.81
2018-04-22T04:52:38.067Z,1008.80
2018-04-22T04:53:38.047Z,1008.81
2018-04-22T04:54:38.014Z,1008.82
2018-04-22T04:55:38.005Z,1008.85
2018-04-22T04:56:37.967Z,1008.84
2018-04-22T04:57:37.984Z,1008.89
2018-04-22T04:58:37.913Z,1008.89
2018-04-22T04:59:37.882Z,1008.97
2018-04-22T05:00:37.871Z,1008.92
2018-04-22T05:01:37.829Z,1008.94
2018-04-22T05:02:37.812Z,1008.95
2018-04-22T05:03:37.824Z,1008.97
2018-04-22T05:04:37.760Z,1008.94
2018-04-22T05:05:37.735Z,1008.93
2018-04-22T05:06:37.722Z,1008.89
2018-04-22T05:07:37.676Z,1008.90
2018-04-22T05:08:37.652Z,1008.82
2018-04-22T05:09:37.623Z,1008.82
2018-04-22T05:10:37.614Z,1008.80
2018-04-22T05:11:37.579Z,1008.79
2018-04-22T05:12:37.566Z,1008.77
2018-04-22T05:13:37.539Z,1008.78
2018-04-22T05:14:37.507Z,1008.71
2018-04-22T05:15:37.479Z,1008.72
2018-04-22T05:16:37.452Z,1008.70
2018-04-22T05:17:37.424Z,1008.68
2018-04-22T05:18:37.396Z,1008.69
2018-04-22T05:19:37.370Z,1008.65
2018-04-22T05:20:37.352Z,1008.65
2018-04-22T05:21:37.327Z,1008.62
2018-04-22T05:22:37.287Z,1008.64
2018-04-22T05:23:37.272Z,1008.63
2018-04-22T05:24:37.247Z,1008.61
2018-04-22T05:25:37.219Z,1008.68
2018-04-22T05:26:37.196Z,1008.64
2018-04-22T05:27:37.170Z,1008.67
2018-04-22T05:28:37.136Z,1008.66
2018-04-22T05:29:37.112Z,1008.69
2018-04-22T05:30:37.153Z,1008.66
2018-04-22T05:31:37.089Z,1008.66
2018-04-22T05:32:37.040Z,1008.68
2018-04-22T05:33:37.015Z,1008.67
2018-04-22T05:34:36.986Z,1008.69
2018-04-22T05:35:36.965Z,1008.70
2018-04-22T05:36:36.939Z,1008.72
2018-04-22T05:37:36.917Z,1008.73
2018-04-22T05:38:36.886Z,1008.74
2018-04-22T05:39:36.860Z,1008.76
2018-04-22T05:40:36.833Z,1008.76
2018-04-22T05:41:36.838Z,1008.80
2018-04-22T05:42:36.826Z,1008.78
2018-04-22T05:43:36.780Z,1008.75
2018-04-22T05:44:36.729Z,1008.76
2018-04-22T05:45:36.704Z,1008.78
2018-04-22T05:46:36.684Z,1008.77
2018-04-22T05:47:36.668Z,1008.75
2018-04-22T05:48:36.634Z,1008.76
2018-04-22T05:49:36.614Z,1008.68
2018-04-22T05:50:36.584Z,1008.70
2018-04-22T05:51:36.552Z,1008.67
2018-04-22T05:52:36.557Z,1008.62
2018-04-22T05:53:36.501Z,1008.60
2018-04-22T05:54:36.470Z,1008.54
2018-04-22T05:55:36.457Z,1008.54
2018-04-22T05:56:36.418Z,1008.49
2018-04-22T05:57:36.395Z,1008.50
2018-04-22T05:58:36.375Z,1008.49
2018-04-22T05:59:36.348Z,1008.50
2018-04-22T06:00:36.320Z,1008.55
2018-04-22T06:01:36.303Z,1008.53
2018-04-22T06:02:36.277Z,1008.56
2018-04-22T06:03:36.245Z,1008.56
2018-04-22T06:04:36.222Z,1008.52
2018-04-22T06:05:36.197Z,1008.57
2018-04-22T06:06:36.169Z,1008.55
2018-04-22T06:07:36.141Z,1008.56
2018-04-22T06:08:36.171Z,1008.58
2018-04-22T06:09:36.089Z,1008.53
2018-04-22T06:10:36.069Z,1008.52
2018-04-22T06:11:36.047Z,1008.52
2018-04-22T06:12:36.016Z,1008.55
2018-04-22T06:13:36.009Z,1008.51
2018-04-22T06:14:35.973Z,1008.48
2018-04-22T06:15:35.947Z,1008.47
2018-04-22T06:16:35.922Z,1008.51
2018-04-22T06:17:35.901Z,1008.48
2018-04-22T06:18:35.868Z,1008.48
2018-04-22T06:19:35.842Z,1008.51
2018-04-22T06:20:35.836Z,1008.47
2018-04-22T06:21:35.791Z,1008.45
2018-04-22T06:22:35.764Z,1008.37
2018-04-22T06:23:35.779Z,1008.39
2018-04-22T06:24:35.716Z,1008.37
2018-04-22T06:25:35.693Z,1008.36
2018-04-22T06:26:35.740Z,1008.39
2018-04-22T06:27:35.642Z,1008.38
2018-04-22T06:28:35.621Z,1008.40
2018-04-22T06:29:35.602Z,1008.40
2018-04-22T06:30:35.573Z,1008.41
2018-04-22T06:31:35.545Z,1008.42
2018-04-22T06:32:35.517Z,1008.44
2018-04-22T06:33:35.500Z,1008.41
2018-04-22T06:34:35.466Z,1008.40
2018-04-22T06:35:35.440Z,1008.41
2018-04-22T06:36:35.416Z,1008.41
2018-04-22T06:37:35.391Z,1008.41
2018-04-22T06:38:35.366Z,1008.35
2018-04-22T06:39:35.363Z,1008.39
2018-04-22T06:40:35.369Z,1008.33
2018-04-22T06:41:35.292Z,1008.30
2018-04-22T06:42:35.273Z,1008.31
2018-04-22T06:43:35.251Z,1008.27
2018-04-22T06:44:35.224Z,1008.27
2018-04-22T06:45:35.204Z,1008.25
2018-04-22T06:46:35.174Z,1008.23
2018-04-22T06:47:35.150Z,1008.18
2018-04-22T06:48:35.121Z,1008.16
2018-04-22T06:49:35.144Z,1008.20
2018-04-22T06:50:35.073Z,1008.21
2018-04-22T06:51:35.046Z,1008.21
2018-04-22T06:52:35.027Z,1008.19
2018-04-22T06:53:34.997Z,1008.20
2018-04-22T06:54:34.973Z,1008.22
2018-04-22T06:55:34.951Z,1008.25
2018-04-22T06:56:34.921Z,1008.30
2018-04-22T06:57:34.898Z,1008.28
2018-04-22T06:58:34.880Z,1008.26
2018-04-22T06:59:34.860Z,1008.23
2018-04-22T07:00:34.836Z,1008.25
2018-04-22T07:01:34.806Z,1008.19
2018-04-22T07:02:34.784Z,1008.16
2018-04-22T07:03:34.772Z,1008.16
2018-04-22T07:04:34.732Z,1008.18
2018-04-22T07:05:34.707Z,1008.21
2018-04-22T07:06:34.684Z,1008.22
2018-04-22T07:07:34.656Z,1008.21
2018-04-22T07:08:34.637Z,1008.22
2018-04-22T07:09:34.615Z,1008.19
2018-04-22T07:10:34.597Z,1008.19
2018-04-22T07:11:34.562Z,1008.19
2018-04-22T07:12:34.546Z,1008.18
2018-04-22T07:13:34.518Z,1008.18
2018-04-22T07:14:34.487Z,1008.19
2018-04-22T07:15:34.485Z,1008.16
2018-04-22T07:16:34.444Z,1008.19
2018-04-22T07:17:34.435Z,1008.17
2018-04-22T07:18:34.390Z,1008.14
2018-04-22T07:19:34.372Z,1008.15
2018-04-22T07:20:34.345Z,1008.16
2018-04-22T07:21:34.322Z,1008.15
2018-04-22T07:22:34.303Z,1008.16
2018-04-22T07:23:34.276Z,1008.16
2018-04-22T07:24:34.260Z,1008.16
2018-04-22T07:25:34.230Z,1008.17
2018-04-22T07:26:34.205Z,1008.18
2018-04-22T07:27:34.187Z,1008.20
2018-04-22T07:28:34.190Z,1008.24
2018-04-22T07:29:34.138Z,1008.26
2018-04-22T07:30:34.109Z,1008.29
2018-04-22T07:31:34.095Z,1008.30
2018-04-22T07:32:34.106Z,1008.34
2018-04-22T07:33:34.038Z,1008.34
2018-04-22T07:34:34.011Z,1008.36
2018-04-22T07:35:34.767Z,1008.36
2018-04-22T07:36:33.966Z,1008.40
2018-04-22T07:37:33.943Z,1008.38
2018-04-22T07:38:34.855Z,1008.34
2018-04-22T07:39:33.902Z,1008.39
2018-04-22T07:40:33.886Z,1008.33
2018-04-22T07:41:33.894Z,1008.30
2018-04-22T07:42:33.882Z,1008.25
2018-04-22T07:43:33.856Z,1008.25
2018-04-22T07:44:36.335Z,1008.27
2018-04-22T07:45:34.114Z,1008.24
2018-04-22T07:46:33.729Z,1008.26
2018-04-22T07:47:50.571Z,1008.23
2018-04-22T07:48:33.686Z,1008.26
2018-04-22T07:49:33.673Z,1008.25
2018-04-22T07:50:33.693Z,1008.20
2018-04-22T07:51:33.622Z,1008.19
2018-04-22T07:52:33.598Z,1008.18
2018-04-22T07:53:33.576Z,1008.15
2018-04-22T07:54:33.555Z,1008.10
2018-04-22T07:55:33.653Z,1008.12
2018-04-22T07:56:33.510Z,1008.09
2018-04-22T07:57:33.547Z,1008.10
2018-04-22T07:58:33.454Z,1008.04
2018-04-22T07:59:33.459Z,1008.07
2018-04-22T08:00:33.410Z,1008.09
2018-04-22T08:01:33.499Z,1008.09
2018-04-22T08:02:33.360Z,1008.07
2018-04-22T08:03:33.382Z,1008.09
2018-04-22T08:04:33.318Z,1008.06
2018-04-22T08:05:33.345Z,1008.08
2018-04-22T08:06:33.272Z,1008.05
2018-04-22T08:07:33.246Z,1008.09
2018-04-22T08:08:33.244Z,1008.14
2018-04-22T08:09:33.199Z,1008.14
2018-04-22T08:10:33.190Z,1008.16
2018-04-22T08:11:33.162Z,1008.12
2018-04-22T08:12:33.141Z,1008.17
2018-04-22T08:13:33.120Z,1008.17
2018-04-22T08:14:33.115Z,1008.15
2018-04-22T08:15:33.069Z,1008.14
2018-04-22T08:16:33.048Z,1008.10
2018-04-22T08:17:33.020Z,1008.08
2018-04-22T08:18:33.085Z,1008.13
2018-04-22T08:19:32.977Z,1008.02
2018-04-22T08:20:32.961Z,1008.01
2018-04-22T08:21:32.952Z,1008.03
2018-04-22T08:22:32.942Z,1008.01
2018-04-22T08:23:32.897Z,1007.97
2018-04-22T08:24:32.872Z,1008.01
2018-04-22T08:25:32.848Z,1007.99
2018-04-22T08:26:32.821Z,1007.98
2018-04-22T08:27:32.794Z,1008.02
2018-04-22T08:28:32.785Z,1008.03
2018-04-22T08:29:32.746Z,1008.00
2018-04-22T08:30:32.743Z,1008.00
2018-04-22T08:31:32.711Z,1007.97
2018-04-22T08:32:32.682Z,1008.00
2018-04-22T08:33:32.669Z,1007.95
2018-04-22T08:34:32.640Z,1007.97
2018-04-22T08:35:32.616Z,1007.96
2018-04-22T08:36:32.609Z,1007.97
2018-04-22T08:37:32.575Z,1007.97
2018-04-22T08:38:32.562Z,1007.90
2018-04-22T08:39:32.533Z,1007.96
2018-04-22T08:40:32.513Z,1007.98
2018-04-22T08:41:32.485Z,1007.94
2018-04-22T08:42:32.465Z,1007.94
2018-04-22T08:43:32.440Z,1007.94
2018-04-22T08:44:32.420Z,1007.97
2018-04-22T08:45:32.403Z,1007.96
2018-04-22T08:46:32.372Z,1007.95
2018-04-22T08:47:32.350Z,1007.98
2018-04-22T08:48:32.329Z,1007.91
2018-04-22T08:49:32.309Z,1007.95
2018-04-22T08:50:32.286Z,1007.94
2018-04-22T08:51:32.267Z,1007.94
2018-04-22T08:52:32.253Z,1007.95
2018-04-22T08:53:32.224Z,1007.90
2018-04-22T08:54:32.202Z,1007.88
2018-04-22T08:55:32.216Z,1007.91
2018-04-22T08:56:32.170Z,1007.90
2018-04-22T08:57:32.160Z,1007.93
2018-04-22T08:58:32.157Z,1007.88
2018-04-22T08:59:32.086Z,1007.91
2018-04-22T09:00:32.066Z,1007.92
2018-04-22T09:01:32.065Z,1007.93
2018-04-22T09:02:32.028Z,1007.93
2018-04-22T09:03:32.007Z,1007.98
2018-04-22T09:04:31.978Z,1008.00
2018-04-22T09:05:31.966Z,1008.01
2018-04-22T09:06:32.032Z,1007.99
2018-04-22T09:07:31.922Z,1008.04
2018-04-22T09:08:31.909Z,1008.02
2018-04-22T09:09:31.884Z,1007.97
2018-04-22T09:10:31.928Z,1007.96
2018-04-22T09:11:31.863Z,1007.98
2018-04-22T09:12:31.822Z,1007.92
2018-04-22T09:13:31.789Z,1007.94
2018-04-22T09:14:31.826Z,1007.91
2018-04-22T09:15:31.747Z,1007.89
2018-04-22T09:16:31.735Z,1007.92
2018-04-22T09:17:31.712Z,1007.90
2018-04-22T09:18:31.698Z,1007.90
2018-04-22T09:19:31.668Z,1007.89
2018-04-22T09:20:31.707Z,1007.89
2018-04-22T09:21:32.108Z,1007.86
2018-04-22T09:22:31.594Z,1007.90
2018-04-22T09:23:31.582Z,1007.93
2018-04-22T09:24:31.579Z,1007.96
2018-04-22T09:25:31.534Z,1007.90
2018-04-22T09:26:31.532Z,1007.86
2018-04-22T09:27:31.491Z,1007.88
2018-04-22T09:28:31.470Z,1007.87
2018-04-22T09:29:31.506Z,1007.87
2018-04-22T09:30:31.439Z,1007.87
2018-04-22T09:31:31.426Z,1007.87
2018-04-22T09:32:31.397Z,1007.82
2018-04-22T09:33:31.422Z,1007.82
2018-04-22T09:34:31.387Z,1007.81
2018-04-22T09:35:31.861Z,1007.81
2018-04-22T09:36:32.843Z,1007.80
2018-04-22T09:37:31.345Z,1007.82
2018-04-22T09:38:31.307Z,1007.81
2018-04-22T09:39:31.284Z,1007.82
2018-04-22T09:40:31.273Z,1007.81
2018-04-22T09:41:31.226Z,1007.78
2018-04-22T09:42:31.223Z,1007.82
2018-04-22T09:43:31.580Z,1007.80
2018-04-22T09:44:31.142Z,1007.78
2018-04-22T09:45:31.138Z,1007.80
2018-04-22T09:46:31.113Z,1007.83
2018-04-22T09:47:31.109Z,1007.92
2018-04-22T09:48:31.074Z,1007.82
2018-04-22T09:49:31.042Z,1007.79
2018-04-22T09:50:31.030Z,1007.84
2018-04-22T09:51:31.003Z,1007.83
2018-04-22T09:52:30.986Z,1007.73
2018-04-22T09:53:30.967Z,1007.74
2018-04-22T09:54:30.935Z,1007.83
2018-04-22T09:55:32.847Z,1007.79
2018-04-22T09:56:30.901Z,1007.77
2018-04-22T09:57:30.879Z,1007.75
2018-04-22T09:58:30.854Z,1007.77
2018-04-22T09:59:30.861Z,1007.77
2018-04-22T10:00:30.838Z,1007.76
2018-04-22T10:01:30.808Z,1007.79
2018-04-22T10:02:30.784Z,1007.74
2018-04-22T10:03:30.760Z,1007.71
2018-04-22T10:04:30.786Z,1007.70
2018-04-22T10:05:30.723Z,1007.70
2018-04-22T10:06:30.763Z,1007.67
2018-04-22T10:07:30.693Z,1007.69
2018-04-22T10:08:30.668Z,1007.66
2018-04-22T10:09:30.645Z,1007.64
2018-04-22T10:10:30.706Z,1007.67
2018-04-22T10:11:30.608Z,1007.66
2018-04-22T10:12:30.660Z,1007.63
2018-04-22T10:13:30.564Z,1007.71
2018-04-22T10:14:30.550Z,1007.81
2018-04-22T10:15:30.532Z,1007.65
2018-04-22T10:16:30.521Z,1007.67
2018-04-22T10:17:32.353Z,1007.65
2018-04-22T10:18:30.477Z,1007.58
2018-04-22T10:19:30.465Z,1007.53
2018-04-22T10:20:30.441Z,1007.51
2018-04-22T10:21:30.470Z,1007.50
2018-04-22T10:22:30.405Z,1007.51
2018-04-22T10:23:30.535Z,1007.52
2018-04-22T10:24:31.427Z,1007.50
2018-04-22T10:25:30.348Z,1007.47
2018-04-22T10:26:30.333Z,1007.47
2018-04-22T10:27:30.300Z,1007.43
2018-04-22T10:28:30.355Z,1007.46
2018-04-22T10:29:33.946Z,1007.42
2018-04-22T10:30:30.261Z,1007.45
2018-04-22T10:31:30.226Z,1007.42
2018-04-22T10:32:30.215Z,1007.39
2018-04-22T10:33:30.192Z,1007.45
2018-04-22T10:34:30.177Z,1007.43
2018-04-22T10:35:30.164Z,1007.45
2018-04-22T10:36:30.146Z,1007.45
2018-04-22T10:37:30.133Z,1007.44
2018-04-22T10:38:30.108Z,1007.37
2018-04-22T10:39:30.093Z,1007.39
2018-04-22T10:40:30.069Z,1007.34
2018-04-22T10:41:30.047Z,1007.41
2018-04-22T10:42:30.025Z,1007.36
2018-04-22T10:43:30.017Z,1007.31
2018-04-22T10:44:30.001Z,1007.30
2018-04-22T10:45:29.978Z,1007.30
2018-04-22T10:46:29.951Z,1007.42
2018-04-22T10:47:29.939Z,1007.35
2018-04-22T10:48:29.931Z,1007.31
2018-04-22T10:49:29.898Z,1007.33
2018-04-22T10:50:29.899Z,1007.30
2018-04-22T10:51:30.860Z,1007.28
2018-04-22T10:52:29.880Z,1007.27
2018-04-22T10:53:29.829Z,1007.25
2018-04-22T10:54:29.818Z,1007.26
2018-04-22T10:55:29.815Z,1007.27
2018-04-22T10:56:29.780Z,1007.27
2018-04-22T10:57:29.776Z,1007.21
2018-04-22T10:58:29.744Z,1007.17
2018-04-22T10:59:29.731Z,1007.10
2018-04-22T11:00:29.825Z,1007.08
2018-04-22T11:01:29.732Z,1007.06
2018-04-22T11:02:29.779Z,1007.19
2018-04-22T11:03:29.773Z,1007.17
2018-04-22T11:04:30.216Z,1007.09
2018-04-22T11:05:31.504Z,1007.11
2018-04-22T11:06:29.839Z,1007.07
2018-04-22T11:07:30.107Z,1007.03
2018-04-22T11:08:29.683Z,1007.03
2018-04-22T11:09:29.708Z,1007.05
2018-04-22T11:10:29.593Z,1007.09
2018-04-22T11:11:30.668Z,1007.07
2018-04-22T11:12:31.623Z,1007.09
2018-04-22T11:13:29.824Z,1007.05
2018-04-22T11:14:31.562Z,1007.06
2018-04-22T11:15:29.551Z,1007.10
2018-04-22T11:16:29.490Z,1006.99
2018-04-22T11:17:29.595Z,1006.94
2018-04-22T11:18:29.479Z,1006.90
2018-04-22T11:19:29.439Z,1006.97
2018-04-22T11:20:29.517Z,1006.93
2018-04-22T11:21:29.482Z,1006.87
2018-04-22T11:22:29.460Z,1006.86
2018-04-22T11:23:31.020Z,1006.81
2018-04-22T11:24:29.351Z,1006.77
2018-04-22T11:25:29.369Z,1006.75
2018-04-22T11:26:29.348Z,1006.75
2018-04-22T11:27:29.418Z,1006.72
2018-04-22T11:28:29.427Z,1006.71
2018-04-22T11:29:29.289Z,1006.75
2018-04-22T11:30:32.138Z,1006.77
2018-04-22T11:31:29.261Z,1006.79
2018-04-22T11:32:29.219Z,1006.80
2018-04-22T11:33:29.252Z,1006.81
2018-04-22T11:34:29.236Z,1006.84
2018-04-22T11:35:29.265Z,1006.79
2018-04-22T11:36:32.146Z,1006.73
2018-04-22T11:37:29.406Z,1006.71
2018-04-22T11:38:29.196Z,1006.70
2018-04-22T11:39:29.226Z,1006.66
2018-04-22T11:40:29.176Z,1006.68
2018-04-22T11:41:29.179Z,1006.67
2018-04-22T11:42:29.888Z,1006.59
2018-04-22T11:43:29.321Z,1006.58
2018-04-22T11:44:29.029Z,1006.53
2018-04-22T11:45:29.114Z,1006.49
2018-04-22T11:46:29.127Z,1006.47
2018-04-22T11:47:29.097Z,1006.42
2018-04-22T11:48:29.008Z,1006.38
2018-04-22T11:49:29.040Z,1006.38
2018-04-22T11:50:28.968Z,1006.38
2018-04-22T11:51:29.273Z,1006.36
2018-04-22T11:52:31.166Z,1006.38
2018-04-22T11:53:29.203Z,1006.41
2018-04-22T11:54:29.578Z,1006.36
2018-04-22T11:55:29.027Z,1006.32
2018-04-22T11:56:28.917Z,1006.39
2018-04-22T11:57:29.150Z,1006.39
2018-04-22T11:58:29.150Z,1006.39
2018-04-22T11:59:30.662Z,1006.41
2018-04-22T12:00:28.903Z,1006.44
2018-04-22T12:01:28.842Z,1006.39
2018-04-22T12:02:28.840Z,1006.41
2018-04-22T12:03:30.514Z,1006.38
2018-04-22T12:04:29.085Z,1006.42
2018-04-22T12:05:28.733Z,1006.40